Relevés horaires Beauvechain (Belgique)


Relevés horaires à Beauvechain - Mardi 16 Avr. 2019
Heure UTC1 Température [°C] Vent [km/h] Hum. [%] Pres.4 [hPa] Visi. [Km] Nébu. [octa] Préc.5 [mm] Cond.
2m. Res. Ros. Dir.2 Vit. Moy. Raf.3
23:00 10.3 10.3 7.3 NNO 1.9 -- 3.7 82 1018.8(0.6/3h) 20 -- -- --
22:00 10.8 10.8 7.3 NNO 1.9 -- 3.7 79 1018.7(0.9/3h) 20 -- -- --
21:00 11.1 11.1 7.1 NNO 1.9 -- 7.4 76 1018.5(1.2/3h) 20 7/8 -- --
20:00 11.5 11.5 6.8 NNO 1.9 -- 5.6 73 1018.2(1.5/3h) 20 7/8 -- --
19:00 11.8 11.8 6.4 S 3.7 -- 7.4 69 1017.7(1.6/3h) 20 7/8 -- --
18:00 12.8 12.8 6.7 S 5.6 -- 16.7 66 1017.1(1.3/3h) 20 7/8 -- --
17:00 13.3 13 6.7 S 7.4 -- 13.0 64 1016.6(1.3/3h) 20 -- -- --
16:00 14.0 13.5 6.8 S 9.3 -- 16.7 62 1016(0.9/3h) 20 7/8 -- --
15:00 15.2 14.7 5.6 S 11.1 -- 16.7 53 1015.5(0.7/3h) 20 7/8 -- --
14:00 16.3 16.2 4.6 S 9.3 -- 13.0 46 1015.1(0.3/3h) 20 7/8 -- --
13:00 16.6 16.6 5.0 ESE 5.6 -- 14.8 46 1014.8(0.0/3h) 15 5/8 -- --
12:00 16.4 16.4 3.5 SSE 9.3 -- 14.8 42 1014.7(-0.1/3h) 15 1/8 -- --
11:00 15.9 15.9 4.1 SE 7.4 -- 14.8 45 1014.7(0.0/3h) 15 1/8 -- --
10:00 15.7 15.7 4.8 SE 7.4 -- 11.1 48 1014.8(-0.1/3h) 15 1/8 -- --
09:00 13.1 13.1 3.3 ESE 5.6 -- 11.1 51 1015.1(-0.1/3h) 15 1/8 -- --
08:00 10.8 10.1 3.1 E 7.4 -- 9.3 59 1015(-0.2/3h) 15 1/8 -- --
07:00 8.3 7.6 1.9 E 5.6 -- 9.3 64 1015.3(0.0/3h) 15 1/8 -- --
06:00 6.8 6.8 1.3 E 3.7 -- 9.3 68 1015.6(-0.2/3h) 15 1/8 -- --
05:00 6.5 6.5 0.8 E 3.7 -- 7.4 67 1015.5(-0.3/3h) 18 -- -- --
04:00 6.9 6 1.1 E 5.6 -- 9.3 66 1015.3(-0.7/3h) 17 -- -- --
03:00 7.4 6.6 1.5 E 5.6 -- 9.3 66 1015.7(-0.9/3h) 18 -- -- --
02:00 7.6 6.8 1.9 E 5.6 -- 9.3 67 1015.7(-1.2/3h) 18 -- -- --
01:00 8.3 7.6 2.4 E 5.6 -- 9.3 66 1016.1(-1.1/3h) 15 -- -- --
00:00 8.8 8.2 2.8 E 5.6 -- 11.1 66 1016.6(-0.7/3h) 16 -- -- --

1 Coordinated Universal Time. Actuellement il est 14:00 locale et 13:00 UTC.

2 Le vent souffle depuis la direction indiquée vers la direction oposée.

3 Les rafales max. sont disponible 40 min après l'heure du relevé.

4 Pour les stations d'altitude (plus de 600m) le géopotentiel du niveau le plus proche de la pression obligatoire est indiqué.

5 Les stations disposant d'un diffuseur peuvent indiquer "trace". Cela signifie que des précipitations ont touchés le sol mais que la quantité est inférieure à 0.1 mm.

Récapitulatif de la journée
Température [°C] Vent [km/h] Ensoleillement4 [h] Precipitations totale5 [mm] Pression [Hpa]
Min1 Max.2 Moy.3 Max. Min Max.
6.3 17.3 0 16.7 0 h 0 min 0 1014.7 1018.8

1 Température minimale relevée entre 18:00 UTC la veille et 18:00 UTC le jour donné.

2 Température maximale relevée entre 06:00 UTC le jour donné et 06:00 UTC le lendemain.

3 Vent moyen de la journée basé sur les relevés horaires.

4 Ensoleillement en heures relevé entre 06:00 UTC la veille et 06:00 UTC le jour donné.

5 Précipitations totales tombées entre 06:00 UTC la jour donné et 06:00 UTC le lendemain.

Graphiques horaires